sensor_id;sensor_type;location;lat;lon;timestamp;P1;durP1;ratioP1;P2;durP2;ratioP2
17864;SDS011;9058;52.018;4.202;2022-11-20T00:01:27;14.10;;;9.60;;
17864;SDS011;9058;52.018;4.202;2022-11-20T00:03:54;14.20;;;10.37;;
17864;SDS011;9058;52.018;4.202;2022-11-20T00:06:21;14.70;;;9.97;;
17864;SDS011;9058;52.018;4.202;2022-11-20T00:08:50;14.93;;;10.57;;
17864;SDS011;9058;52.018;4.202;2022-11-20T00:11:18;13.50;;;9.20;;
17864;SDS011;9058;52.018;4.202;2022-11-20T00:13:45;11.77;;;9.43;;
17864;SDS011;9058;52.018;4.202;2022-11-20T00:16:12;14.23;;;10.13;;
17864;SDS011;9058;52.018;4.202;2022-11-20T00:18:40;15.47;;;10.73;;
17864;SDS011;9058;52.018;4.202;2022-11-20T00:21:09;12.53;;;10.07;;
17864;SDS011;9058;52.018;4.202;2022-11-20T00:23:35;15.53;;;9.93;;
17864;SDS011;9058;52.018;4.202;2022-11-20T00:26:04;14.53;;;9.53;;
17864;SDS011;9058;52.018;4.202;2022-11-20T00:28:30;14.30;;;9.63;;
17864;SDS011;9058;52.018;4.202;2022-11-20T00:31:00;23.93;;;10.80;;
17864;SDS011;9058;52.018;4.202;2022-11-20T00:33:26;13.37;;;9.57;;
17864;SDS011;9058;52.018;4.202;2022-11-20T00:35:53;15.80;;;10.43;;
17864;SDS011;9058;52.018;4.202;2022-11-20T00:38:19;15.77;;;10.67;;
17864;SDS011;9058;52.018;4.202;2022-11-20T00:40:46;14.50;;;9.73;;
17864;SDS011;9058;52.018;4.202;2022-11-20T00:43:13;13.67;;;9.83;;
17864;SDS011;9058;52.018;4.202;2022-11-20T00:45:40;15.93;;;10.67;;
17864;SDS011;9058;52.018;4.202;2022-11-20T00:48:07;15.10;;;9.97;;
17864;SDS011;9058;52.018;4.202;2022-11-20T00:50:33;16.07;;;10.57;;
17864;SDS011;9058;52.018;4.202;2022-11-20T00:52:59;15.07;;;10.67;;
17864;SDS011;9058;52.018;4.202;2022-11-20T00:55:26;15.40;;;10.70;;
17864;SDS011;9058;52.018;4.202;2022-11-20T00:57:52;14.00;;;10.00;;
17864;SDS011;9058;52.018;4.202;2022-11-20T01:00:20;16.43;;;11.13;;
17864;SDS011;9058;52.018;4.202;2022-11-20T01:02:46;16.97;;;10.87;;
17864;SDS011;9058;52.018;4.202;2022-11-20T01:05:12;14.27;;;10.33;;
17864;SDS011;9058;52.018;4.202;2022-11-20T01:07:39;14.90;;;10.40;;
17864;SDS011;9058;52.018;4.202;2022-11-20T01:10:05;14.50;;;11.13;;
17864;SDS011;9058;52.018;4.202;2022-11-20T01:12:32;15.27;;;10.87;;
17864;SDS011;9058;52.018;4.202;2022-11-20T01:14:58;16.00;;;10.43;;
17864;SDS011;9058;52.018;4.202;2022-11-20T01:17:25;14.87;;;11.60;;
17864;SDS011;9058;52.018;4.202;2022-11-20T01:19:52;15.53;;;10.67;;
17864;SDS011;9058;52.018;4.202;2022-11-20T01:22:18;16.10;;;10.83;;
17864;SDS011;9058;52.018;4.202;2022-11-20T01:24:44;15.63;;;11.20;;
17864;SDS011;9058;52.018;4.202;2022-11-20T01:27:11;16.07;;;11.13;;
17864;SDS011;9058;52.018;4.202;2022-11-20T01:29:37;15.00;;;11.20;;
17864;SDS011;9058;52.018;4.202;2022-11-20T01:32:03;16.73;;;11.47;;
17864;SDS011;9058;52.018;4.202;2022-11-20T01:34:32;16.67;;;11.30;;
17864;SDS011;9058;52.018;4.202;2022-11-20T01:36:58;15.27;;;11.10;;
17864;SDS011;9058;52.018;4.202;2022-11-20T01:39:25;20.60;;;11.23;;
17864;SDS011;9058;52.018;4.202;2022-11-20T01:41:52;17.73;;;11.20;;
17864;SDS011;9058;52.018;4.202;2022-11-20T01:44:45;17.20;;;10.73;;
17864;SDS011;9058;52.018;4.202;2022-11-20T01:47:14;15.93;;;11.03;;
17864;SDS011;9058;52.018;4.202;2022-11-20T01:49:44;16.03;;;10.47;;
17864;SDS011;9058;52.018;4.202;2022-11-20T01:52:12;17.87;;;11.37;;
17864;SDS011;9058;52.018;4.202;2022-11-20T01:54:42;16.20;;;10.83;;
17864;SDS011;9058;52.018;4.202;2022-11-20T01:57:10;16.70;;;11.93;;
17864;SDS011;9058;52.018;4.202;2022-11-20T01:59:38;15.77;;;10.80;;
17864;SDS011;9058;52.018;4.202;2022-11-20T02:02:07;18.60;;;11.93;;
17864;SDS011;9058;52.018;4.202;2022-11-20T02:04:33;16.97;;;11.70;;
17864;SDS011;9058;52.018;4.202;2022-11-20T02:07:01;18.07;;;12.37;;
17864;SDS011;9058;52.018;4.202;2022-11-20T02:09:28;15.50;;;11.07;;
17864;SDS011;9058;52.018;4.202;2022-11-20T02:11:55;17.20;;;11.63;;
17864;SDS011;9058;52.018;4.202;2022-11-20T02:14:22;15.33;;;11.17;;
17864;SDS011;9058;52.018;4.202;2022-11-20T02:16:48;16.57;;;11.57;;
17864;SDS011;9058;52.018;4.202;2022-11-20T02:19:17;17.07;;;12.50;;
17864;SDS011;9058;52.018;4.202;2022-11-20T02:21:46;15.80;;;11.33;;
17864;SDS011;9058;52.018;4.202;2022-11-20T02:24:15;18.33;;;12.23;;
17864;SDS011;9058;52.018;4.202;2022-11-20T02:26:46;15.40;;;11.03;;
17864;SDS011;9058;52.018;4.202;2022-11-20T02:29:15;15.30;;;11.07;;
17864;SDS011;9058;52.018;4.202;2022-11-20T02:31:42;16.80;;;11.60;;
17864;SDS011;9058;52.018;4.202;2022-11-20T02:34:09;15.80;;;10.67;;
17864;SDS011;9058;52.018;4.202;2022-11-20T02:36:36;16.90;;;11.30;;
17864;SDS011;9058;52.018;4.202;2022-11-20T02:39:02;15.90;;;11.47;;
17864;SDS011;9058;52.018;4.202;2022-11-20T02:41:32;19.30;;;12.00;;
17864;SDS011;9058;52.018;4.202;2022-11-20T02:43:58;17.03;;;11.43;;
17864;SDS011;9058;52.018;4.202;2022-11-20T02:46:25;16.67;;;11.60;;
17864;SDS011;9058;52.018;4.202;2022-11-20T02:48:51;16.63;;;11.97;;
17864;SDS011;9058;52.018;4.202;2022-11-20T02:51:17;16.03;;;11.20;;
17864;SDS011;9058;52.018;4.202;2022-11-20T02:53:44;16.73;;;10.53;;
17864;SDS011;9058;52.018;4.202;2022-11-20T02:56:10;16.50;;;12.60;;
17864;SDS011;9058;52.018;4.202;2022-11-20T02:58:37;18.03;;;11.90;;
17864;SDS011;9058;52.018;4.202;2022-11-20T03:01:04;18.40;;;11.63;;
17864;SDS011;9058;52.018;4.202;2022-11-20T03:03:30;19.57;;;13.17;;
17864;SDS011;9058;52.018;4.202;2022-11-20T03:05:58;16.90;;;12.43;;
17864;SDS011;9058;52.018;4.202;2022-11-20T03:08:24;17.37;;;12.10;;
17864;SDS011;9058;52.018;4.202;2022-11-20T03:10:51;17.93;;;12.60;;
17864;SDS011;9058;52.018;4.202;2022-11-20T03:13:17;15.40;;;10.87;;
17864;SDS011;9058;52.018;4.202;2022-11-20T03:15:45;16.97;;;12.10;;
17864;SDS011;9058;52.018;4.202;2022-11-20T03:18:11;17.80;;;12.27;;
17864;SDS011;9058;52.018;4.202;2022-11-20T03:20:38;15.97;;;11.03;;
17864;SDS011;9058;52.018;4.202;2022-11-20T03:23:05;17.60;;;12.50;;
17864;SDS011;9058;52.018;4.202;2022-11-20T03:25:31;20.43;;;12.97;;
17864;SDS011;9058;52.018;4.202;2022-11-20T03:27:59;18.20;;;12.33;;
17864;SDS011;9058;52.018;4.202;2022-11-20T03:30:25;20.90;;;14.13;;
17864;SDS011;9058;52.018;4.202;2022-11-20T03:32:53;20.20;;;12.80;;
17864;SDS011;9058;52.018;4.202;2022-11-20T03:35:20;20.10;;;13.03;;
17864;SDS011;9058;52.018;4.202;2022-11-20T03:37:46;19.77;;;13.87;;
17864;SDS011;9058;52.018;4.202;2022-11-20T03:40:13;21.13;;;13.00;;
17864;SDS011;9058;52.018;4.202;2022-11-20T03:42:40;20.20;;;13.27;;
17864;SDS011;9058;52.018;4.202;2022-11-20T03:45:12;19.10;;;12.97;;
17864;SDS011;9058;52.018;4.202;2022-11-20T03:47:39;21.23;;;12.93;;
17864;SDS011;9058;52.018;4.202;2022-11-20T03:50:07;19.90;;;13.27;;
17864;SDS011;9058;52.018;4.202;2022-11-20T03:52:33;19.93;;;13.10;;
17864;SDS011;9058;52.018;4.202;2022-11-20T03:55:00;20.93;;;13.07;;
17864;SDS011;9058;52.018;4.202;2022-11-20T03:57:26;17.67;;;12.23;;
17864;SDS011;9058;52.018;4.202;2022-11-20T03:59:52;17.40;;;11.70;;
17864;SDS011;9058;52.018;4.202;2022-11-20T04:02:21;17.57;;;12.37;;
17864;SDS011;9058;52.018;4.202;2022-11-20T04:04:47;17.73;;;12.17;;
17864;SDS011;9058;52.018;4.202;2022-11-20T04:07:15;17.63;;;11.83;;
17864;SDS011;9058;52.018;4.202;2022-11-20T04:09:41;15.80;;;10.87;;
17864;SDS011;9058;52.018;4.202;2022-11-20T04:12:08;14.93;;;11.20;;
17864;SDS011;9058;52.018;4.202;2022-11-20T04:14:34;17.50;;;11.73;;
17864;SDS011;9058;52.018;4.202;2022-11-20T04:17:02;19.40;;;11.70;;
17864;SDS011;9058;52.018;4.202;2022-11-20T04:19:29;20.03;;;13.03;;
17864;SDS011;9058;52.018;4.202;2022-11-20T04:21:55;20.30;;;13.07;;
17864;SDS011;9058;52.018;4.202;2022-11-20T04:24:24;16.30;;;12.27;;
17864;SDS011;9058;52.018;4.202;2022-11-20T04:26:50;17.57;;;12.07;;
17864;SDS011;9058;52.018;4.202;2022-11-20T04:29:16;19.70;;;13.13;;
17864;SDS011;9058;52.018;4.202;2022-11-20T04:31:43;20.70;;;13.27;;
17864;SDS011;9058;52.018;4.202;2022-11-20T04:34:10;22.23;;;14.97;;
17864;SDS011;9058;52.018;4.202;2022-11-20T04:36:36;23.47;;;14.10;;
17864;SDS011;9058;52.018;4.202;2022-11-20T04:39:05;23.73;;;16.20;;
17864;SDS011;9058;52.018;4.202;2022-11-20T04:41:33;21.40;;;14.77;;
17864;SDS011;9058;52.018;4.202;2022-11-20T04:44:00;24.07;;;14.67;;
17864;SDS011;9058;52.018;4.202;2022-11-20T04:46:29;22.10;;;14.37;;
17864;SDS011;9058;52.018;4.202;2022-11-20T04:48:56;23.57;;;14.40;;
17864;SDS011;9058;52.018;4.202;2022-11-20T04:51:22;19.47;;;13.47;;
17864;SDS011;9058;52.018;4.202;2022-11-20T04:53:49;20.40;;;13.67;;
17864;SDS011;9058;52.018;4.202;2022-11-20T04:56:15;19.37;;;13.73;;
17864;SDS011;9058;52.018;4.202;2022-11-20T04:58:43;21.40;;;13.30;;
17864;SDS011;9058;52.018;4.202;2022-11-20T05:01:10;19.80;;;13.53;;
17864;SDS011;9058;52.018;4.202;2022-11-20T05:03:38;19.37;;;12.83;;
17864;SDS011;9058;52.018;4.202;2022-11-20T05:06:04;20.17;;;13.67;;
17864;SDS011;9058;52.018;4.202;2022-11-20T05:08:31;19.33;;;13.73;;
17864;SDS011;9058;52.018;4.202;2022-11-20T05:11:01;22.97;;;15.00;;
17864;SDS011;9058;52.018;4.202;2022-11-20T05:13:27;22.80;;;14.37;;
17864;SDS011;9058;52.018;4.202;2022-11-20T05:15:55;20.47;;;14.10;;
17864;SDS011;9058;52.018;4.202;2022-11-20T05:18:21;21.50;;;14.07;;
17864;SDS011;9058;52.018;4.202;2022-11-20T05:20:50;21.33;;;14.57;;
17864;SDS011;9058;52.018;4.202;2022-11-20T05:23:20;19.47;;;14.03;;
17864;SDS011;9058;52.018;4.202;2022-11-20T05:25:46;24.43;;;15.27;;
17864;SDS011;9058;52.018;4.202;2022-11-20T05:28:12;23.23;;;14.57;;
17864;SDS011;9058;52.018;4.202;2022-11-20T05:30:39;21.30;;;14.20;;
17864;SDS011;9058;52.018;4.202;2022-11-20T05:33:07;22.00;;;14.70;;
17864;SDS011;9058;52.018;4.202;2022-11-20T05:35:33;19.47;;;13.77;;
17864;SDS011;9058;52.018;4.202;2022-11-20T05:38:00;24.50;;;15.60;;
17864;SDS011;9058;52.018;4.202;2022-11-20T05:40:26;22.70;;;15.07;;
17864;SDS011;9058;52.018;4.202;2022-11-20T05:42:52;23.97;;;15.23;;
17864;SDS011;9058;52.018;4.202;2022-11-20T05:45:20;23.63;;;15.33;;
17864;SDS011;9058;52.018;4.202;2022-11-20T05:47:46;21.17;;;14.27;;
17864;SDS011;9058;52.018;4.202;2022-11-20T05:50:15;18.03;;;13.20;;
17864;SDS011;9058;52.018;4.202;2022-11-20T05:52:41;22.17;;;14.37;;
17864;SDS011;9058;52.018;4.202;2022-11-20T05:55:08;21.97;;;15.00;;
17864;SDS011;9058;52.018;4.202;2022-11-20T05:57:34;20.27;;;14.67;;
17864;SDS011;9058;52.018;4.202;2022-11-20T06:00:01;20.07;;;13.30;;
17864;SDS011;9058;52.018;4.202;2022-11-20T06:02:27;23.07;;;15.03;;
17864;SDS011;9058;52.018;4.202;2022-11-20T06:04:54;24.87;;;15.87;;
17864;SDS011;9058;52.018;4.202;2022-11-20T06:07:21;24.67;;;14.97;;
17864;SDS011;9058;52.018;4.202;2022-11-20T06:09:48;21.23;;;14.70;;
17864;SDS011;9058;52.018;4.202;2022-11-20T06:12:14;20.90;;;14.70;;
17864;SDS011;9058;52.018;4.202;2022-11-20T06:14:40;19.20;;;12.80;;
17864;SDS011;9058;52.018;4.202;2022-11-20T06:17:06;22.80;;;14.03;;
17864;SDS011;9058;52.018;4.202;2022-11-20T06:19:33;22.80;;;13.57;;
17864;SDS011;9058;52.018;4.202;2022-11-20T06:21:59;21.60;;;14.83;;
17864;SDS011;9058;52.018;4.202;2022-11-20T06:24:26;24.40;;;13.93;;
17864;SDS011;9058;52.018;4.202;2022-11-20T06:26:53;20.33;;;13.30;;
17864;SDS011;9058;52.018;4.202;2022-11-20T06:29:19;20.50;;;15.03;;
17864;SDS011;9058;52.018;4.202;2022-11-20T06:31:45;21.83;;;14.33;;
17864;SDS011;9058;52.018;4.202;2022-11-20T06:34:12;22.13;;;16.07;;
17864;SDS011;9058;52.018;4.202;2022-11-20T06:36:38;23.50;;;15.97;;
17864;SDS011;9058;52.018;4.202;2022-11-20T06:39:05;23.00;;;16.30;;
17864;SDS011;9058;52.018;4.202;2022-11-20T06:41:33;22.63;;;15.53;;
17864;SDS011;9058;52.018;4.202;2022-11-20T06:43:59;22.53;;;16.67;;
17864;SDS011;9058;52.018;4.202;2022-11-20T06:46:25;21.50;;;15.20;;
17864;SDS011;9058;52.018;4.202;2022-11-20T06:48:52;23.27;;;16.00;;
17864;SDS011;9058;52.018;4.202;2022-11-20T06:51:18;22.70;;;16.27;;
17864;SDS011;9058;52.018;4.202;2022-11-20T06:53:44;21.73;;;16.67;;
17864;SDS011;9058;52.018;4.202;2022-11-20T06:56:11;21.47;;;15.60;;
17864;SDS011;9058;52.018;4.202;2022-11-20T06:58:38;22.77;;;16.23;;
17864;SDS011;9058;52.018;4.202;2022-11-20T07:01:05;24.83;;;17.20;;
17864;SDS011;9058;52.018;4.202;2022-11-20T07:03:32;23.83;;;17.10;;
17864;SDS011;9058;52.018;4.202;2022-11-20T07:05:58;25.83;;;17.27;;
17864;SDS011;9058;52.018;4.202;2022-11-20T07:08:26;25.40;;;17.57;;
17864;SDS011;9058;52.018;4.202;2022-11-20T07:10:52;24.53;;;17.33;;
17864;SDS011;9058;52.018;4.202;2022-11-20T07:13:18;28.23;;;18.47;;
17864;SDS011;9058;52.018;4.202;2022-11-20T07:15:46;25.43;;;17.43;;
17864;SDS011;9058;52.018;4.202;2022-11-20T07:18:12;25.40;;;16.33;;
17864;SDS011;9058;52.018;4.202;2022-11-20T07:20:38;21.83;;;16.53;;
17864;SDS011;9058;52.018;4.202;2022-11-20T07:23:05;23.63;;;16.87;;
17864;SDS011;9058;52.018;4.202;2022-11-20T07:25:31;23.10;;;16.23;;
17864;SDS011;9058;52.018;4.202;2022-11-20T07:27:58;29.00;;;19.03;;
17864;SDS011;9058;52.018;4.202;2022-11-20T07:30:24;27.40;;;19.90;;
17864;SDS011;9058;52.018;4.202;2022-11-20T07:32:52;28.67;;;19.00;;
17864;SDS011;9058;52.018;4.202;2022-11-20T07:35:18;28.93;;;19.57;;
17864;SDS011;9058;52.018;4.202;2022-11-20T07:37:45;29.83;;;19.33;;
17864;SDS011;9058;52.018;4.202;2022-11-20T07:40:12;28.77;;;20.70;;
17864;SDS011;9058;52.018;4.202;2022-11-20T07:42:38;28.23;;;18.83;;
17864;SDS011;9058;52.018;4.202;2022-11-20T07:45:05;25.50;;;17.07;;
17864;SDS011;9058;52.018;4.202;2022-11-20T07:47:34;21.73;;;14.20;;
17864;SDS011;9058;52.018;4.202;2022-11-20T07:50:02;23.50;;;16.20;;
17864;SDS011;9058;52.018;4.202;2022-11-20T07:52:28;26.50;;;17.20;;
17864;SDS011;9058;52.018;4.202;2022-11-20T07:54:54;23.60;;;17.17;;
17864;SDS011;9058;52.018;4.202;2022-11-20T07:57:21;23.43;;;16.17;;
17864;SDS011;9058;52.018;4.202;2022-11-20T07:59:47;24.73;;;17.70;;
17864;SDS011;9058;52.018;4.202;2022-11-20T08:02:14;27.03;;;18.13;;
17864;SDS011;9058;52.018;4.202;2022-11-20T08:04:41;25.10;;;17.90;;
17864;SDS011;9058;52.018;4.202;2022-11-20T08:07:08;27.97;;;18.50;;
17864;SDS011;9058;52.018;4.202;2022-11-20T08:09:35;28.30;;;19.40;;
17864;SDS011;9058;52.018;4.202;2022-11-20T08:12:01;24.23;;;17.60;;
17864;SDS011;9058;52.018;4.202;2022-11-20T08:14:45;26.07;;;17.90;;
17864;SDS011;9058;52.018;4.202;2022-11-20T08:17:11;25.90;;;18.70;;
17864;SDS011;9058;52.018;4.202;2022-11-20T08:19:38;28.03;;;19.47;;
17864;SDS011;9058;52.018;4.202;2022-11-20T08:22:04;26.67;;;18.03;;
17864;SDS011;9058;52.018;4.202;2022-11-20T08:24:32;25.97;;;19.23;;
17864;SDS011;9058;52.018;4.202;2022-11-20T08:26:58;25.77;;;19.03;;
17864;SDS011;9058;52.018;4.202;2022-11-20T08:29:27;26.47;;;18.70;;
17864;SDS011;9058;52.018;4.202;2022-11-20T08:31:53;27.10;;;19.63;;
17864;SDS011;9058;52.018;4.202;2022-11-20T08:34:20;25.33;;;18.70;;
17864;SDS011;9058;52.018;4.202;2022-11-20T08:36:46;22.67;;;16.87;;
17864;SDS011;9058;52.018;4.202;2022-11-20T08:39:13;22.70;;;17.07;;
17864;SDS011;9058;52.018;4.202;2022-11-20T08:41:41;25.67;;;17.70;;
17864;SDS011;9058;52.018;4.202;2022-11-20T08:44:07;27.70;;;18.33;;
17864;SDS011;9058;52.018;4.202;2022-11-20T08:46:34;22.53;;;16.13;;
17864;SDS011;9058;52.018;4.202;2022-11-20T08:49:01;24.27;;;16.60;;
17864;SDS011;9058;52.018;4.202;2022-11-20T08:51:28;25.03;;;17.53;;
17864;SDS011;9058;52.018;4.202;2022-11-20T08:53:54;26.97;;;19.10;;
17864;SDS011;9058;52.018;4.202;2022-11-20T08:56:21;24.03;;;15.77;;
17864;SDS011;9058;52.018;4.202;2022-11-20T08:58:49;23.00;;;17.57;;
17864;SDS011;9058;52.018;4.202;2022-11-20T09:01:15;23.83;;;17.93;;
17864;SDS011;9058;52.018;4.202;2022-11-20T09:03:41;22.53;;;16.53;;
17864;SDS011;9058;52.018;4.202;2022-11-20T09:06:08;25.50;;;18.10;;
17864;SDS011;9058;52.018;4.202;2022-11-20T09:08:35;28.20;;;19.03;;
17864;SDS011;9058;52.018;4.202;2022-11-20T09:11:02;25.80;;;17.80;;
17864;SDS011;9058;52.018;4.202;2022-11-20T09:13:30;27.00;;;17.83;;
17864;SDS011;9058;52.018;4.202;2022-11-20T09:15:58;20.23;;;14.63;;
17864;SDS011;9058;52.018;4.202;2022-11-20T09:18:28;27.37;;;18.80;;
17864;SDS011;9058;52.018;4.202;2022-11-20T09:20:56;26.93;;;18.00;;
17864;SDS011;9058;52.018;4.202;2022-11-20T09:23:23;25.77;;;17.23;;
17864;SDS011;9058;52.018;4.202;2022-11-20T09:25:50;26.93;;;17.90;;
17864;SDS011;9058;52.018;4.202;2022-11-20T09:28:17;25.73;;;17.40;;
17864;SDS011;9058;52.018;4.202;2022-11-20T09:30:44;27.40;;;17.17;;
17864;SDS011;9058;52.018;4.202;2022-11-20T09:33:12;28.30;;;19.80;;
17864;SDS011;9058;52.018;4.202;2022-11-20T09:35:39;23.80;;;17.00;;
17864;SDS011;9058;52.018;4.202;2022-11-20T09:38:05;31.53;;;21.97;;
17864;SDS011;9058;52.018;4.202;2022-11-20T09:40:36;28.00;;;19.93;;
17864;SDS011;9058;52.018;4.202;2022-11-20T09:43:05;24.60;;;17.37;;
17864;SDS011;9058;52.018;4.202;2022-11-20T09:45:37;27.70;;;19.37;;
17864;SDS011;9058;52.018;4.202;2022-11-20T09:48:13;29.80;;;21.70;;
17864;SDS011;9058;52.018;4.202;2022-11-20T09:50:43;28.47;;;19.70;;
17864;SDS011;9058;52.018;4.202;2022-11-20T09:53:13;28.47;;;19.33;;
17864;SDS011;9058;52.018;4.202;2022-11-20T09:55:42;29.13;;;20.10;;
17864;SDS011;9058;52.018;4.202;2022-11-20T09:58:15;31.10;;;19.03;;
17864;SDS011;9058;52.018;4.202;2022-11-20T10:00:44;28.97;;;19.60;;
17864;SDS011;9058;52.018;4.202;2022-11-20T10:03:14;34.23;;;22.10;;
17864;SDS011;9058;52.018;4.202;2022-11-20T10:05:43;28.37;;;17.77;;
17864;SDS011;9058;52.018;4.202;2022-11-20T10:08:13;35.73;;;22.07;;
17864;SDS011;9058;52.018;4.202;2022-11-20T10:10:42;34.13;;;22.37;;
17864;SDS011;9058;52.018;4.202;2022-11-20T10:13:14;26.57;;;19.03;;
17864;SDS011;9058;52.018;4.202;2022-11-20T10:15:45;37.97;;;24.47;;
17864;SDS011;9058;52.018;4.202;2022-11-20T10:18:20;41.83;;;27.10;;
17864;SDS011;9058;52.018;4.202;2022-11-20T10:20:50;44.70;;;25.13;;
17864;SDS011;9058;52.018;4.202;2022-11-20T10:23:26;39.20;;;25.13;;
17864;SDS011;9058;52.018;4.202;2022-11-20T10:25:55;41.07;;;25.33;;
17864;SDS011;9058;52.018;4.202;2022-11-20T10:28:24;38.47;;;24.60;;
17864;SDS011;9058;52.018;4.202;2022-11-20T10:30:54;34.50;;;21.13;;
17864;SDS011;9058;52.018;4.202;2022-11-20T10:33:23;37.43;;;22.43;;
17864;SDS011;9058;52.018;4.202;2022-11-20T10:35:52;32.23;;;20.40;;
17864;SDS011;9058;52.018;4.202;2022-11-20T10:38:23;40.83;;;22.47;;
17864;SDS011;9058;52.018;4.202;2022-11-20T10:40:51;36.43;;;22.80;;
17864;SDS011;9058;52.018;4.202;2022-11-20T10:43:19;43.37;;;24.73;;
17864;SDS011;9058;52.018;4.202;2022-11-20T10:45:49;44.97;;;25.93;;
17864;SDS011;9058;52.018;4.202;2022-11-20T10:48:19;36.63;;;22.27;;
17864;SDS011;9058;52.018;4.202;2022-11-20T10:50:53;40.77;;;24.23;;
17864;SDS011;9058;52.018;4.202;2022-11-20T10:53:24;39.43;;;23.47;;
17864;SDS011;9058;52.018;4.202;2022-11-20T10:55:54;46.47;;;27.10;;
17864;SDS011;9058;52.018;4.202;2022-11-20T10:58:24;30.23;;;18.73;;
17864;SDS011;9058;52.018;4.202;2022-11-20T11:01:02;38.13;;;23.67;;
17864;SDS011;9058;52.018;4.202;2022-11-20T11:03:29;40.57;;;25.47;;
17864;SDS011;9058;52.018;4.202;2022-11-20T11:05:59;41.73;;;25.93;;
17864;SDS011;9058;52.018;4.202;2022-11-20T11:08:29;41.77;;;24.53;;
17864;SDS011;9058;52.018;4.202;2022-11-20T11:10:58;45.80;;;26.47;;
17864;SDS011;9058;52.018;4.202;2022-11-20T11:13:27;41.77;;;26.93;;
17864;SDS011;9058;52.018;4.202;2022-11-20T11:15:55;40.73;;;24.93;;
17864;SDS011;9058;52.018;4.202;2022-11-20T11:18:23;32.23;;;18.23;;
17864;SDS011;9058;52.018;4.202;2022-11-20T11:20:50;39.93;;;24.07;;
17864;SDS011;9058;52.018;4.202;2022-11-20T11:23:26;42.67;;;25.57;;
17864;SDS011;9058;52.018;4.202;2022-11-20T11:25:56;40.60;;;23.90;;
17864;SDS011;9058;52.018;4.202;2022-11-20T11:28:23;51.20;;;28.33;;
17864;SDS011;9058;52.018;4.202;2022-11-20T11:30:52;39.63;;;22.60;;
17864;SDS011;9058;52.018;4.202;2022-11-20T11:33:20;36.43;;;19.93;;
17864;SDS011;9058;52.018;4.202;2022-11-20T11:35:47;42.40;;;24.07;;
17864;SDS011;9058;52.018;4.202;2022-11-20T11:38:16;37.90;;;21.63;;
17864;SDS011;9058;52.018;4.202;2022-11-20T11:40:48;37.90;;;20.77;;
17864;SDS011;9058;52.018;4.202;2022-11-20T11:43:18;35.73;;;22.87;;
17864;SDS011;9058;52.018;4.202;2022-11-20T11:46:03;36.83;;;19.90;;
17864;SDS011;9058;52.018;4.202;2022-11-20T11:48:33;43.10;;;25.70;;
17864;SDS011;9058;52.018;4.202;2022-11-20T11:50:59;42.97;;;24.60;;
17864;SDS011;9058;52.018;4.202;2022-11-20T11:53:25;34.87;;;20.03;;
17864;SDS011;9058;52.018;4.202;2022-11-20T11:55:56;39.33;;;24.63;;
17864;SDS011;9058;52.018;4.202;2022-11-20T11:58:29;25.53;;;15.60;;
17864;SDS011;9058;52.018;4.202;2022-11-20T12:01:01;32.07;;;19.23;;
17864;SDS011;9058;52.018;4.202;2022-11-20T12:03:32;38.00;;;23.00;;
17864;SDS011;9058;52.018;4.202;2022-11-20T12:06:03;38.17;;;23.47;;
17864;SDS011;9058;52.018;4.202;2022-11-20T12:08:32;42.87;;;23.67;;
17864;SDS011;9058;52.018;4.202;2022-11-20T12:11:06;43.90;;;28.13;;
17864;SDS011;9058;52.018;4.202;2022-11-20T12:13:40;39.77;;;23.97;;
17864;SDS011;9058;52.018;4.202;2022-11-20T12:16:09;41.03;;;24.43;;
17864;SDS011;9058;52.018;4.202;2022-11-20T12:18:38;38.20;;;22.30;;
17864;SDS011;9058;52.018;4.202;2022-11-20T12:21:08;40.33;;;22.60;;
17864;SDS011;9058;52.018;4.202;2022-11-20T12:23:41;35.87;;;21.37;;
17864;SDS011;9058;52.018;4.202;2022-11-20T12:26:13;39.47;;;21.93;;
17864;SDS011;9058;52.018;4.202;2022-11-20T12:28:44;45.33;;;25.17;;
17864;SDS011;9058;52.018;4.202;2022-11-20T12:31:16;34.17;;;18.93;;
17864;SDS011;9058;52.018;4.202;2022-11-20T12:33:47;46.13;;;25.17;;
17864;SDS011;9058;52.018;4.202;2022-11-20T12:36:19;48.17;;;25.97;;
17864;SDS011;9058;52.018;4.202;2022-11-20T12:38:52;48.17;;;27.63;;
17864;SDS011;9058;52.018;4.202;2022-11-20T12:41:25;42.10;;;20.53;;
17864;SDS011;9058;52.018;4.202;2022-11-20T12:44:14;38.20;;;22.83;;
17864;SDS011;9058;52.018;4.202;2022-11-20T12:47:04;36.33;;;21.57;;
17864;SDS011;9058;52.018;4.202;2022-11-20T12:49:36;35.23;;;20.67;;
17864;SDS011;9058;52.018;4.202;2022-11-20T12:52:07;34.60;;;20.53;;
17864;SDS011;9058;52.018;4.202;2022-11-20T12:54:46;41.57;;;25.03;;
17864;SDS011;9058;52.018;4.202;2022-11-20T12:57:18;43.83;;;26.43;;
17864;SDS011;9058;52.018;4.202;2022-11-20T12:59:51;41.80;;;21.53;;
17864;SDS011;9058;52.018;4.202;2022-11-20T13:02:24;41.43;;;24.07;;
17864;SDS011;9058;52.018;4.202;2022-11-20T13:04:55;53.10;;;29.60;;
17864;SDS011;9058;52.018;4.202;2022-11-20T13:07:30;49.60;;;28.60;;
17864;SDS011;9058;52.018;4.202;2022-11-20T13:09:57;41.80;;;23.07;;
17864;SDS011;9058;52.018;4.202;2022-11-20T13:12:27;46.63;;;24.90;;
17864;SDS011;9058;52.018;4.202;2022-11-20T13:14:57;52.47;;;28.23;;
17864;SDS011;9058;52.018;4.202;2022-11-20T13:17:28;51.70;;;27.10;;
17864;SDS011;9058;52.018;4.202;2022-11-20T13:19:56;46.47;;;25.80;;
17864;SDS011;9058;52.018;4.202;2022-11-20T13:22:25;51.97;;;28.77;;
17864;SDS011;9058;52.018;4.202;2022-11-20T13:24:52;49.27;;;29.83;;
17864;SDS011;9058;52.018;4.202;2022-11-20T13:27:19;51.33;;;27.90;;
17864;SDS011;9058;52.018;4.202;2022-11-20T13:29:58;60.33;;;31.83;;
17864;SDS011;9058;52.018;4.202;2022-11-20T13:32:26;63.90;;;33.27;;
17864;SDS011;9058;52.018;4.202;2022-11-20T13:34:57;43.10;;;23.07;;
17864;SDS011;9058;52.018;4.202;2022-11-20T13:37:26;59.77;;;28.73;;
17864;SDS011;9058;52.018;4.202;2022-11-20T13:39:53;41.30;;;22.70;;
17864;SDS011;9058;52.018;4.202;2022-11-20T13:42:22;53.83;;;28.50;;
17864;SDS011;9058;52.018;4.202;2022-11-20T13:44:54;52.20;;;27.20;;
17864;SDS011;9058;52.018;4.202;2022-11-20T13:47:21;57.13;;;27.07;;
17864;SDS011;9058;52.018;4.202;2022-11-20T13:49:48;57.20;;;29.03;;
17864;SDS011;9058;52.018;4.202;2022-11-20T13:52:24;54.93;;;29.63;;
17864;SDS011;9058;52.018;4.202;2022-11-20T13:54:58;51.17;;;26.47;;
17864;SDS011;9058;52.018;4.202;2022-11-20T13:57:33;54.73;;;24.97;;
17864;SDS011;9058;52.018;4.202;2022-11-20T14:00:08;68.63;;;31.77;;
17864;SDS011;9058;52.018;4.202;2022-11-20T14:02:36;47.83;;;22.53;;
17864;SDS011;9058;52.018;4.202;2022-11-20T14:05:03;44.37;;;22.20;;
17864;SDS011;9058;52.018;4.202;2022-11-20T14:07:31;56.30;;;28.60;;
17864;SDS011;9058;52.018;4.202;2022-11-20T14:09:59;51.97;;;27.53;;
17864;SDS011;9058;52.018;4.202;2022-11-20T14:12:27;57.57;;;26.50;;
17864;SDS011;9058;52.018;4.202;2022-11-20T14:14:54;66.13;;;31.87;;
17864;SDS011;9058;52.018;4.202;2022-11-20T14:17:23;53.80;;;27.30;;
17864;SDS011;9058;52.018;4.202;2022-11-20T14:19:51;58.20;;;29.67;;
17864;SDS011;9058;52.018;4.202;2022-11-20T14:22:18;62.73;;;30.33;;
17864;SDS011;9058;52.018;4.202;2022-11-20T14:24:45;72.90;;;35.53;;
17864;SDS011;9058;52.018;4.202;2022-11-20T14:27:12;60.37;;;24.83;;
17864;SDS011;9058;52.018;4.202;2022-11-20T14:29:39;65.03;;;32.50;;
17864;SDS011;9058;52.018;4.202;2022-11-20T14:32:08;61.70;;;29.47;;
17864;SDS011;9058;52.018;4.202;2022-11-20T14:34:37;69.47;;;33.37;;
17864;SDS011;9058;52.018;4.202;2022-11-20T14:37:05;70.40;;;35.90;;
17864;SDS011;9058;52.018;4.202;2022-11-20T14:39:33;56.03;;;28.13;;
17864;SDS011;9058;52.018;4.202;2022-11-20T14:42:01;57.97;;;29.73;;